Skip Navigation Links Skip Navigation Links

Current Weather

Aeroflex-Andover, Andover, N.J.

For information only: do not use for flight planning or navigation.
Latest weather
Observation time Saturday, June 6, 2020 6:54 PM EDT
Local time Saturday, June 6, 2020 7:31 PM EDT
Flight conditions Conditions unknown
Winds
Wind direction variable
Wind speed 7 mph
Sky condition
Ceiling unlimited
Temperature 82°F
Dewpoint 48°F
Altimeter 29.78 in.Hg
Derived measurements
Relative humidity 31%
Heat index 82°F
Density altitude 2382 ft.
Sea-level pressure 29.75 in.Hg
Remarks
Fully automated report.
Automated weather observing station without precipitation discriminator.
METAR K12N 062254Z AUTO VRB06KT 28/09 A2978 RMK AO1 SLP074 T02780089

Settings

Location code

InnerDrive.Weather 4.0.6770.0 Release CLR 4.0.30319.42000
Copyright ©2018 Inner Drive Technology. All rights reserved. Portions Copyright ©1986-2018 David Braverman.

Find weather

Site navigation


Skip Navigation Links

Place info

Page info

PayPal - The safer, easier way to pay online!

Return home.

Copyright ©2020 Inner Drive Technology. Purveyors of fine, hand-crafted computer software. Page printed 2020-06-06T23:31:40 UTC.